Colorado Springs, CO (80941)

4:34 AM MDT on August 31, 2015 (GMT -0600)
Palmer Park | | Change Station
CLOSE
Current Station
Personal Weather Station
Location: Colorado Springs, CO
Elevation: 6381 ft
Nearby Weather Stations

Elev 6381 ft 38.87 °N, 104.77 °W | Updated 8 minutes ago

Partly Cloudy
Partly Cloudy
71.1 °F
Feels Like 77 °F
N
9.9
Wind Variable Wind from NNW

Today
High -- | Low -- °F
--% Chance of Precip.
Yesterday
High -- | Low -- °F
Precip. -- in
6:26 AM 7:31 PM
Waning Gibbous, 96% visible
Pressure 29.76 in
Visibility 10.0 miles
Clouds Few 14000 ft
Scattered Clouds 20000 ft
Heat Index 77 °F
Dew Point 43 °F
Humidity 36%
Rainfall 0.00 in
Snow Depth Not available.
UV 0 out of 12
Pollen 10.40 out of 12
Air Quality Not available.
Flu Activity Not available.
METAR KCOS 310954Z 26005KT 10SM FEW140 SCT200 18/07 A3007 RMK AO2 SLP078 T01830067
Pressure 29.76 in
Visibility 10.0 miles
Clouds Few 14000 ft
Scattered Clouds 20000 ft
Heat Index 77 °F
Dew Point 43 °F
Humidity 36%
Rainfall 0.00 in
Snow Depth Not available.
UV 0 out of 12
Pollen 10.40 out of 12
Air Quality Not available.
Flu Activity Not available.
METAR KCOS 310954Z 26005KT 10SM FEW140 SCT200 18/07 A3007 RMK AO2 SLP078 T01830067

10-Day Weather Forecast

×

Almanac

Astronomy

Aug. 31, 2015 Rise Set
Actual Time
Civil Twilight
Nautical Twilight
Astronomical Twilight
Moon
Length of Visible Light
Length of Day
Tomorrow will be .
, % of the Moon is Illuminated

Today's Extremes

State Highs State Lows

Community

WunderPhotos

Upload Photos

1,851,229 photos uploaded!

WunderBlogs® & News

Nearby

Air Quality

  Air Quality AQ Index Pollutant
Not available.

Snow Depth

Station Depth Elevation

Earthquake Activity

City Distance Mag. Time & Date
Minimum magnitude displayed is 2.5.

Coastal Water Temperatures

Place Temperature

Stations

Nearby Weather Stations

Station Location Temp. Windchill Dew Point Humidity Wind Precip. Elev Updated Type